sensor_id;sensor_type;location;lat;lon;timestamp;P1;durP1;ratioP1;P2;durP2;ratioP2
66761;SDS011;53672;48.176;16.338;2024-03-02T00:02:34;114.40;;;37.72;;
66761;SDS011;53672;48.176;16.338;2024-03-02T00:07:40;109.77;;;35.63;;
66761;SDS011;53672;48.176;16.338;2024-03-02T00:12:43;103.72;;;34.75;;
66761;SDS011;53672;48.176;16.338;2024-03-02T00:17:53;102.73;;;34.43;;
66761;SDS011;53672;48.176;16.338;2024-03-02T00:22:56;97.78;;;33.40;;
66761;SDS011;53672;48.176;16.338;2024-03-02T00:28:04;117.80;;;35.30;;
66761;SDS011;53672;48.176;16.338;2024-03-02T00:33:08;115.67;;;36.20;;
66761;SDS011;53672;48.176;16.338;2024-03-02T00:38:11;112.72;;;35.72;;
66761;SDS011;53672;48.176;16.338;2024-03-02T00:43:30;128.63;;;37.83;;
66761;SDS011;53672;48.176;16.338;2024-03-02T00:48:47;126.85;;;38.88;;
66761;SDS011;53672;48.176;16.338;2024-03-02T00:53:52;126.38;;;37.97;;
66761;SDS011;53672;48.176;16.338;2024-03-02T00:58:56;127.13;;;36.77;;
66761;SDS011;53672;48.176;16.338;2024-03-02T01:03:59;114.47;;;34.90;;
66761;SDS011;53672;48.176;16.338;2024-03-02T01:09:01;119.13;;;36.20;;
66761;SDS011;53672;48.176;16.338;2024-03-02T01:14:03;124.07;;;36.20;;
66761;SDS011;53672;48.176;16.338;2024-03-02T01:19:06;107.82;;;33.58;;
66761;SDS011;53672;48.176;16.338;2024-03-02T01:24:09;126.20;;;37.67;;
66761;SDS011;53672;48.176;16.338;2024-03-02T01:29:11;132.98;;;36.95;;
66761;SDS011;53672;48.176;16.338;2024-03-02T01:34:14;124.57;;;35.30;;
66761;SDS011;53672;48.176;16.338;2024-03-02T01:39:16;137.48;;;37.83;;
66761;SDS011;53672;48.176;16.338;2024-03-02T01:44:18;141.88;;;39.58;;
66761;SDS011;53672;48.176;16.338;2024-03-02T01:49:21;128.00;;;38.13;;
66761;SDS011;53672;48.176;16.338;2024-03-02T01:54:22;120.55;;;34.90;;
66761;SDS011;53672;48.176;16.338;2024-03-02T01:59:24;124.50;;;35.80;;
66761;SDS011;53672;48.176;16.338;2024-03-02T02:04:27;113.90;;;34.28;;
66761;SDS011;53672;48.176;16.338;2024-03-02T02:09:29;117.57;;;34.92;;
66761;SDS011;53672;48.176;16.338;2024-03-02T02:14:30;105.40;;;33.43;;
66761;SDS011;53672;48.176;16.338;2024-03-02T02:19:33;115.72;;;33.45;;
66761;SDS011;53672;48.176;16.338;2024-03-02T02:24:36;113.13;;;33.43;;
66761;SDS011;53672;48.176;16.338;2024-03-02T02:29:41;110.32;;;33.30;;
66761;SDS011;53672;48.176;16.338;2024-03-02T02:34:42;107.28;;;33.47;;
66761;SDS011;53672;48.176;16.338;2024-03-02T02:39:45;99.10;;;34.20;;
66761;SDS011;53672;48.176;16.338;2024-03-02T02:44:47;93.15;;;30.60;;
66761;SDS011;53672;48.176;16.338;2024-03-02T02:49:49;95.93;;;32.57;;
66761;SDS011;53672;48.176;16.338;2024-03-02T02:54:52;95.35;;;31.23;;
66761;SDS011;53672;48.176;16.338;2024-03-02T02:59:53;88.55;;;30.92;;
66761;SDS011;53672;48.176;16.338;2024-03-02T03:04:55;98.60;;;32.27;;
66761;SDS011;53672;48.176;16.338;2024-03-02T03:09:58;96.10;;;32.63;;
66761;SDS011;53672;48.176;16.338;2024-03-02T03:15:00;91.43;;;32.03;;
66761;SDS011;53672;48.176;16.338;2024-03-02T03:20:03;93.85;;;31.52;;
66761;SDS011;53672;48.176;16.338;2024-03-02T03:25:11;92.05;;;30.98;;
66761;SDS011;53672;48.176;16.338;2024-03-02T03:30:12;97.57;;;31.97;;
66761;SDS011;53672;48.176;16.338;2024-03-02T03:35:14;98.50;;;31.35;;
66761;SDS011;53672;48.176;16.338;2024-03-02T03:40:17;88.10;;;29.83;;
66761;SDS011;53672;48.176;16.338;2024-03-02T03:45:19;106.43;;;32.13;;
66761;SDS011;53672;48.176;16.338;2024-03-02T03:50:21;101.55;;;30.83;;
66761;SDS011;53672;48.176;16.338;2024-03-02T03:55:24;103.57;;;33.37;;
66761;SDS011;53672;48.176;16.338;2024-03-02T04:00:25;95.90;;;31.10;;
66761;SDS011;53672;48.176;16.338;2024-03-02T04:05:27;111.97;;;33.17;;
66761;SDS011;53672;48.176;16.338;2024-03-02T04:10:30;111.60;;;34.47;;
66761;SDS011;53672;48.176;16.338;2024-03-02T04:15:31;125.88;;;35.00;;
66761;SDS011;53672;48.176;16.338;2024-03-02T04:20:33;120.80;;;35.13;;
66761;SDS011;53672;48.176;16.338;2024-03-02T04:25:36;119.85;;;35.28;;
66761;SDS011;53672;48.176;16.338;2024-03-02T04:30:37;120.53;;;33.73;;
66761;SDS011;53672;48.176;16.338;2024-03-02T04:35:39;107.50;;;32.15;;
66761;SDS011;53672;48.176;16.338;2024-03-02T04:40:42;97.13;;;28.33;;
66761;SDS011;53672;48.176;16.338;2024-03-02T04:45:43;101.63;;;29.50;;
66761;SDS011;53672;48.176;16.338;2024-03-02T04:50:45;117.15;;;31.67;;
66761;SDS011;53672;48.176;16.338;2024-03-02T04:55:48;110.97;;;31.30;;
66761;SDS011;53672;48.176;16.338;2024-03-02T05:01:27;86.10;;;28.23;;
66761;SDS011;53672;48.176;16.338;2024-03-02T05:06:29;108.70;;;28.58;;
66761;SDS011;53672;48.176;16.338;2024-03-02T05:11:32;102.73;;;28.60;;
66761;SDS011;53672;48.176;16.338;2024-03-02T05:16:53;161.25;;;30.10;;
66761;SDS011;53672;48.176;16.338;2024-03-02T05:21:55;120.97;;;28.07;;
66761;SDS011;53672;48.176;16.338;2024-03-02T05:26:58;98.18;;;27.35;;
66761;SDS011;53672;48.176;16.338;2024-03-02T05:31:59;103.88;;;27.77;;
66761;SDS011;53672;48.176;16.338;2024-03-02T05:37:01;82.23;;;26.93;;
66761;SDS011;53672;48.176;16.338;2024-03-02T05:42:04;112.80;;;28.95;;
66761;SDS011;53672;48.176;16.338;2024-03-02T05:47:07;139.07;;;28.03;;
66761;SDS011;53672;48.176;16.338;2024-03-02T05:52:09;200.68;;;29.80;;
66761;SDS011;53672;48.176;16.338;2024-03-02T05:57:12;166.30;;;29.02;;
66761;SDS011;53672;48.176;16.338;2024-03-02T06:02:33;162.53;;;26.90;;
66761;SDS011;53672;48.176;16.338;2024-03-02T06:07:36;123.43;;;27.20;;
66761;SDS011;53672;48.176;16.338;2024-03-02T06:12:39;104.43;;;25.33;;
66761;SDS011;53672;48.176;16.338;2024-03-02T06:17:40;87.65;;;24.17;;
66761;SDS011;53672;48.176;16.338;2024-03-02T06:22:42;94.72;;;25.02;;
66761;SDS011;53672;48.176;16.338;2024-03-02T06:27:45;139.90;;;25.10;;
66761;SDS011;53672;48.176;16.338;2024-03-02T06:32:46;111.68;;;24.08;;
66761;SDS011;53672;48.176;16.338;2024-03-02T06:37:48;116.80;;;26.17;;
66761;SDS011;53672;48.176;16.338;2024-03-02T06:42:52;111.13;;;26.25;;
66761;SDS011;53672;48.176;16.338;2024-03-02T06:47:54;95.32;;;24.98;;
66761;SDS011;53672;48.176;16.338;2024-03-02T06:52:56;129.10;;;25.87;;
66761;SDS011;53672;48.176;16.338;2024-03-02T06:57:59;110.32;;;26.48;;
66761;SDS011;53672;48.176;16.338;2024-03-02T07:03:00;110.33;;;26.23;;
66761;SDS011;53672;48.176;16.338;2024-03-02T07:08:02;139.32;;;26.52;;
66761;SDS011;53672;48.176;16.338;2024-03-02T07:13:06;121.00;;;26.23;;
66761;SDS011;53672;48.176;16.338;2024-03-02T07:18:08;126.13;;;26.93;;
66761;SDS011;53672;48.176;16.338;2024-03-02T07:23:09;142.80;;;26.63;;
66761;SDS011;53672;48.176;16.338;2024-03-02T07:28:12;78.37;;;24.50;;
66761;SDS011;53672;48.176;16.338;2024-03-02T07:33:14;106.10;;;25.50;;
66761;SDS011;53672;48.176;16.338;2024-03-02T07:38:16;93.40;;;24.30;;
66761;SDS011;53672;48.176;16.338;2024-03-02T07:43:20;87.43;;;25.93;;
66761;SDS011;53672;48.176;16.338;2024-03-02T07:48:21;88.38;;;23.92;;
66761;SDS011;53672;48.176;16.338;2024-03-02T07:53:23;72.87;;;21.13;;
66761;SDS011;53672;48.176;16.338;2024-03-02T07:58:26;67.35;;;20.23;;
66761;SDS011;53672;48.176;16.338;2024-03-02T08:03:28;71.18;;;19.65;;
66761;SDS011;53672;48.176;16.338;2024-03-02T08:08:29;64.10;;;19.17;;
66761;SDS011;53672;48.176;16.338;2024-03-02T08:13:32;48.50;;;19.70;;
66761;SDS011;53672;48.176;16.338;2024-03-02T08:18:34;46.47;;;18.27;;
66761;SDS011;53672;48.176;16.338;2024-03-02T08:23:35;39.75;;;17.55;;
66761;SDS011;53672;48.176;16.338;2024-03-02T08:28:39;38.17;;;16.98;;
66761;SDS011;53672;48.176;16.338;2024-03-02T08:33:41;41.43;;;16.40;;
66761;SDS011;53672;48.176;16.338;2024-03-02T08:38:43;45.78;;;17.38;;
66761;SDS011;53672;48.176;16.338;2024-03-02T08:43:46;51.40;;;18.63;;
66761;SDS011;53672;48.176;16.338;2024-03-02T08:48:48;49.05;;;18.55;;
66761;SDS011;53672;48.176;16.338;2024-03-02T08:53:49;45.15;;;19.08;;
66761;SDS011;53672;48.176;16.338;2024-03-02T08:58:52;57.73;;;21.43;;
66761;SDS011;53672;48.176;16.338;2024-03-02T09:03:54;56.67;;;21.70;;
66761;SDS011;53672;48.176;16.338;2024-03-02T09:08:56;52.33;;;21.00;;
66761;SDS011;53672;48.176;16.338;2024-03-02T09:13:59;53.40;;;19.83;;
66761;SDS011;53672;48.176;16.338;2024-03-02T09:19:00;52.78;;;21.38;;
66761;SDS011;53672;48.176;16.338;2024-03-02T09:24:02;53.87;;;20.63;;
66761;SDS011;53672;48.176;16.338;2024-03-02T09:29:07;53.13;;;21.38;;
66761;SDS011;53672;48.176;16.338;2024-03-02T09:34:09;53.73;;;20.97;;
66761;SDS011;53672;48.176;16.338;2024-03-02T09:39:10;52.03;;;21.25;;
66761;SDS011;53672;48.176;16.338;2024-03-02T09:44:13;53.47;;;20.58;;
66761;SDS011;53672;48.176;16.338;2024-03-02T09:49:15;54.43;;;21.53;;
66761;SDS011;53672;48.176;16.338;2024-03-02T09:54:17;52.28;;;21.45;;
66761;SDS011;53672;48.176;16.338;2024-03-02T09:59:20;51.23;;;21.40;;
66761;SDS011;53672;48.176;16.338;2024-03-02T10:04:22;49.55;;;20.65;;
66761;SDS011;53672;48.176;16.338;2024-03-02T10:09:26;51.28;;;21.52;;
66761;SDS011;53672;48.176;16.338;2024-03-02T10:14:30;50.47;;;21.63;;
66761;SDS011;53672;48.176;16.338;2024-03-02T10:19:32;54.05;;;23.17;;
66761;SDS011;53672;48.176;16.338;2024-03-02T10:24:35;52.87;;;22.50;;
66761;SDS011;53672;48.176;16.338;2024-03-02T10:29:40;57.17;;;22.70;;
66761;SDS011;53672;48.176;16.338;2024-03-02T10:34:42;53.92;;;22.35;;
66761;SDS011;53672;48.176;16.338;2024-03-02T10:39:45;54.30;;;23.30;;
66761;SDS011;53672;48.176;16.338;2024-03-02T10:44:49;58.60;;;23.17;;
66761;SDS011;53672;48.176;16.338;2024-03-02T10:49:51;53.70;;;22.63;;
66761;SDS011;53672;48.176;16.338;2024-03-02T10:54:55;53.05;;;22.08;;
66761;SDS011;53672;48.176;16.338;2024-03-02T11:00:00;56.88;;;23.60;;
66761;SDS011;53672;48.176;16.338;2024-03-02T11:05:04;51.63;;;23.57;;
66761;SDS011;53672;48.176;16.338;2024-03-02T11:10:09;52.80;;;23.48;;
66761;SDS011;53672;48.176;16.338;2024-03-02T11:15:16;55.47;;;24.63;;
66761;SDS011;53672;48.176;16.338;2024-03-02T11:20:19;50.22;;;23.23;;
66761;SDS011;53672;48.176;16.338;2024-03-02T11:25:24;56.33;;;23.23;;
66761;SDS011;53672;48.176;16.338;2024-03-02T11:35:53;57.50;;;25.33;;
66761;SDS011;53672;48.176;16.338;2024-03-02T11:40:55;59.80;;;25.93;;
66761;SDS011;53672;48.176;16.338;2024-03-02T11:45:58;58.92;;;25.23;;
66761;SDS011;53672;48.176;16.338;2024-03-02T11:51:00;61.50;;;25.70;;
66761;SDS011;53672;48.176;16.338;2024-03-02T11:56:02;61.47;;;26.17;;
66761;SDS011;53672;48.176;16.338;2024-03-02T12:01:07;61.45;;;25.58;;
66761;SDS011;53672;48.176;16.338;2024-03-02T12:06:08;62.37;;;26.67;;
66761;SDS011;53672;48.176;16.338;2024-03-02T12:11:12;64.60;;;27.30;;
66761;SDS011;53672;48.176;16.338;2024-03-02T12:16:23;59.42;;;26.52;;
66761;SDS011;53672;48.176;16.338;2024-03-02T12:21:25;66.23;;;27.00;;
66761;SDS011;53672;48.176;16.338;2024-03-02T12:26:27;65.43;;;26.50;;
66761;SDS011;53672;48.176;16.338;2024-03-02T12:31:31;63.47;;;26.17;;
66761;SDS011;53672;48.176;16.338;2024-03-02T12:36:37;55.90;;;24.98;;
66761;SDS011;53672;48.176;16.338;2024-03-02T12:41:39;58.92;;;25.23;;
66761;SDS011;53672;48.176;16.338;2024-03-02T12:46:43;54.67;;;25.50;;
66761;SDS011;53672;48.176;16.338;2024-03-02T12:51:45;53.50;;;25.00;;
66761;SDS011;53672;48.176;16.338;2024-03-02T12:56:51;52.83;;;23.80;;
66761;SDS011;53672;48.176;16.338;2024-03-02T13:01:55;48.95;;;24.17;;
66761;SDS011;53672;48.176;16.338;2024-03-02T13:06:58;52.53;;;24.73;;
66761;SDS011;53672;48.176;16.338;2024-03-02T13:12:00;52.50;;;24.50;;
66761;SDS011;53672;48.176;16.338;2024-03-02T13:17:05;53.13;;;23.25;;
66761;SDS011;53672;48.176;16.338;2024-03-02T13:22:09;49.13;;;22.70;;
66761;SDS011;53672;48.176;16.338;2024-03-02T13:27:10;47.38;;;21.98;;
66761;SDS011;53672;48.176;16.338;2024-03-02T13:32:14;49.42;;;21.90;;
66761;SDS011;53672;48.176;16.338;2024-03-02T13:37:15;46.30;;;21.20;;
66761;SDS011;53672;48.176;16.338;2024-03-02T13:42:17;48.72;;;22.15;;
66761;SDS011;53672;48.176;16.338;2024-03-02T13:47:20;47.93;;;22.87;;
66761;SDS011;53672;48.176;16.338;2024-03-02T13:52:22;45.90;;;21.33;;
66761;SDS011;53672;48.176;16.338;2024-03-02T13:57:25;39.60;;;19.88;;
66761;SDS011;53672;48.176;16.338;2024-03-02T14:02:29;42.17;;;20.33;;
66761;SDS011;53672;48.176;16.338;2024-03-02T14:07:31;46.38;;;20.30;;
66761;SDS011;53672;48.176;16.338;2024-03-02T14:12:32;45.60;;;21.30;;
66761;SDS011;53672;48.176;16.338;2024-03-02T14:17:35;46.55;;;21.38;;
66761;SDS011;53672;48.176;16.338;2024-03-02T14:22:37;48.88;;;22.85;;
66761;SDS011;53672;48.176;16.338;2024-03-02T14:27:38;48.83;;;22.30;;
66761;SDS011;53672;48.176;16.338;2024-03-02T14:32:41;47.10;;;21.48;;
66761;SDS011;53672;48.176;16.338;2024-03-02T14:37:43;47.87;;;22.33;;
66761;SDS011;53672;48.176;16.338;2024-03-02T14:42:45;50.47;;;22.67;;
66761;SDS011;53672;48.176;16.338;2024-03-02T14:47:49;51.47;;;23.50;;
66761;SDS011;53672;48.176;16.338;2024-03-02T14:52:51;52.70;;;24.07;;
66761;SDS011;53672;48.176;16.338;2024-03-02T14:57:53;49.55;;;22.88;;
66761;SDS011;53672;48.176;16.338;2024-03-02T15:02:56;53.83;;;24.03;;
66761;SDS011;53672;48.176;16.338;2024-03-02T15:07:58;58.55;;;25.13;;
66761;SDS011;53672;48.176;16.338;2024-03-02T15:13:02;52.53;;;23.33;;
66761;SDS011;53672;48.176;16.338;2024-03-02T15:18:05;56.10;;;24.13;;
66761;SDS011;53672;48.176;16.338;2024-03-02T15:23:08;57.33;;;24.60;;
66761;SDS011;53672;48.176;16.338;2024-03-02T15:28:09;56.60;;;23.80;;
66761;SDS011;53672;48.176;16.338;2024-03-02T15:33:12;55.15;;;24.33;;
66761;SDS011;53672;48.176;16.338;2024-03-02T15:38:14;57.47;;;24.90;;
66761;SDS011;53672;48.176;16.338;2024-03-02T15:43:17;56.57;;;24.83;;
66761;SDS011;53672;48.176;16.338;2024-03-02T15:48:20;57.25;;;25.27;;
66761;SDS011;53672;48.176;16.338;2024-03-02T15:53:23;52.17;;;22.83;;
66761;SDS011;53672;48.176;16.338;2024-03-02T15:58:25;59.85;;;23.98;;
66761;SDS011;53672;48.176;16.338;2024-03-02T16:03:28;54.97;;;23.02;;
66761;SDS011;53672;48.176;16.338;2024-03-02T16:08:31;54.90;;;23.73;;
66761;SDS011;53672;48.176;16.338;2024-03-02T16:13:32;56.15;;;25.02;;
66761;SDS011;53672;48.176;16.338;2024-03-02T16:18:37;56.57;;;24.47;;
66761;SDS011;53672;48.176;16.338;2024-03-02T16:23:38;56.90;;;23.83;;
66761;SDS011;53672;48.176;16.338;2024-03-02T16:28:41;59.85;;;24.98;;
66761;SDS011;53672;48.176;16.338;2024-03-02T16:33:44;56.10;;;23.17;;
66761;SDS011;53672;48.176;16.338;2024-03-02T16:38:45;60.15;;;24.52;;
66761;SDS011;53672;48.176;16.338;2024-03-02T16:43:47;55.90;;;23.67;;
66761;SDS011;53672;48.176;16.338;2024-03-02T16:48:50;59.88;;;24.70;;
66761;SDS011;53672;48.176;16.338;2024-03-02T16:53:52;59.67;;;23.75;;
66761;SDS011;53672;48.176;16.338;2024-03-02T16:58:53;56.97;;;23.87;;
66761;SDS011;53672;48.176;16.338;2024-03-02T17:03:57;59.53;;;24.45;;
66761;SDS011;53672;48.176;16.338;2024-03-02T17:08:58;58.20;;;23.47;;
66761;SDS011;53672;48.176;16.338;2024-03-02T17:14:00;55.85;;;23.70;;
66761;SDS011;53672;48.176;16.338;2024-03-02T17:19:04;55.53;;;23.10;;
66761;SDS011;53672;48.176;16.338;2024-03-02T17:24:06;58.40;;;24.90;;
66761;SDS011;53672;48.176;16.338;2024-03-02T17:29:08;61.35;;;25.20;;
66761;SDS011;53672;48.176;16.338;2024-03-02T17:34:11;65.90;;;25.20;;
66761;SDS011;53672;48.176;16.338;2024-03-02T17:39:12;62.33;;;23.88;;
66761;SDS011;53672;48.176;16.338;2024-03-02T17:44:14;62.30;;;25.40;;
66761;SDS011;53672;48.176;16.338;2024-03-02T17:49:17;65.10;;;25.47;;
66761;SDS011;53672;48.176;16.338;2024-03-02T17:54:19;68.45;;;25.02;;
66761;SDS011;53672;48.176;16.338;2024-03-02T17:59:20;64.63;;;26.30;;
66761;SDS011;53672;48.176;16.338;2024-03-02T18:04:23;65.07;;;25.52;;
66761;SDS011;53672;48.176;16.338;2024-03-02T18:09:26;62.67;;;25.27;;
66761;SDS011;53672;48.176;16.338;2024-03-02T18:14:28;58.37;;;23.83;;
66761;SDS011;53672;48.176;16.338;2024-03-02T18:19:33;64.80;;;25.00;;
66761;SDS011;53672;48.176;16.338;2024-03-02T18:24:35;61.93;;;23.43;;
66761;SDS011;53672;48.176;16.338;2024-03-02T18:29:36;56.38;;;22.85;;
66761;SDS011;53672;48.176;16.338;2024-03-02T18:34:39;56.97;;;22.88;;
66761;SDS011;53672;48.176;16.338;2024-03-02T18:39:41;58.00;;;24.03;;
66761;SDS011;53672;48.176;16.338;2024-03-02T18:44:44;53.35;;;21.58;;
66761;SDS011;53672;48.176;16.338;2024-03-02T18:49:47;57.17;;;23.03;;
66761;SDS011;53672;48.176;16.338;2024-03-02T18:54:49;59.47;;;24.25;;
66761;SDS011;53672;48.176;16.338;2024-03-02T18:59:51;54.97;;;23.10;;
66761;SDS011;53672;48.176;16.338;2024-03-02T19:04:53;54.60;;;21.90;;
66761;SDS011;53672;48.176;16.338;2024-03-02T19:09:55;54.90;;;22.77;;
66761;SDS011;53672;48.176;16.338;2024-03-02T19:14:57;53.27;;;22.03;;
66761;SDS011;53672;48.176;16.338;2024-03-02T19:20:00;53.85;;;21.73;;
66761;SDS011;53672;48.176;16.338;2024-03-02T19:25:02;54.88;;;21.27;;
66761;SDS011;53672;48.176;16.338;2024-03-02T19:30:05;54.70;;;22.37;;
66761;SDS011;53672;48.176;16.338;2024-03-02T19:35:09;54.97;;;22.17;;
66761;SDS011;53672;48.176;16.338;2024-03-02T19:40:12;53.13;;;21.53;;
66761;SDS011;53672;48.176;16.338;2024-03-02T19:45:13;57.63;;;23.33;;
66761;SDS011;53672;48.176;16.338;2024-03-02T19:50:16;54.33;;;21.77;;
66761;SDS011;53672;48.176;16.338;2024-03-02T19:55:18;52.77;;;21.00;;
66761;SDS011;53672;48.176;16.338;2024-03-02T20:00:21;51.47;;;21.42;;
66761;SDS011;53672;48.176;16.338;2024-03-02T20:05:24;48.00;;;20.23;;
66761;SDS011;53672;48.176;16.338;2024-03-02T20:10:26;54.80;;;22.50;;
66761;SDS011;53672;48.176;16.338;2024-03-02T20:15:28;54.72;;;22.25;;
66761;SDS011;53672;48.176;16.338;2024-03-02T20:20:31;56.57;;;21.97;;
66761;SDS011;53672;48.176;16.338;2024-03-02T20:25:32;58.92;;;23.17;;
66761;SDS011;53672;48.176;16.338;2024-03-02T20:30:34;62.40;;;22.73;;
66761;SDS011;53672;48.176;16.338;2024-03-02T20:35:37;65.13;;;22.98;;
66761;SDS011;53672;48.176;16.338;2024-03-02T20:40:39;70.93;;;23.23;;
66761;SDS011;53672;48.176;16.338;2024-03-02T20:45:42;67.50;;;23.47;;
66761;SDS011;53672;48.176;16.338;2024-03-02T20:50:45;68.45;;;23.88;;
66761;SDS011;53672;48.176;16.338;2024-03-02T20:55:47;58.93;;;21.97;;
66761;SDS011;53672;48.176;16.338;2024-03-02T21:00:48;58.88;;;21.85;;
66761;SDS011;53672;48.176;16.338;2024-03-02T21:05:51;62.80;;;23.23;;
66761;SDS011;53672;48.176;16.338;2024-03-02T21:10:53;66.67;;;23.50;;
66761;SDS011;53672;48.176;16.338;2024-03-02T21:15:55;78.05;;;25.17;;
66761;SDS011;53672;48.176;16.338;2024-03-02T21:20:58;76.47;;;26.80;;
66761;SDS011;53672;48.176;16.338;2024-03-02T21:26:00;81.88;;;27.95;;
66761;SDS011;53672;48.176;16.338;2024-03-02T21:31:03;78.10;;;27.13;;
66761;SDS011;53672;48.176;16.338;2024-03-02T21:36:06;81.57;;;27.90;;
66761;SDS011;53672;48.176;16.338;2024-03-02T21:41:08;76.43;;;27.23;;
66761;SDS011;53672;48.176;16.338;2024-03-02T21:46:10;82.90;;;26.97;;
66761;SDS011;53672;48.176;16.338;2024-03-02T21:51:15;85.78;;;28.10;;
66761;SDS011;53672;48.176;16.338;2024-03-02T21:56:17;90.22;;;28.73;;
66761;SDS011;53672;48.176;16.338;2024-03-02T22:01:19;90.63;;;29.07;;
66761;SDS011;53672;48.176;16.338;2024-03-02T22:06:21;87.47;;;29.98;;
66761;SDS011;53672;48.176;16.338;2024-03-02T22:11:23;87.60;;;28.97;;
66761;SDS011;53672;48.176;16.338;2024-03-02T22:16:25;91.50;;;28.80;;
66761;SDS011;53672;48.176;16.338;2024-03-02T22:21:28;92.63;;;30.17;;
66761;SDS011;53672;48.176;16.338;2024-03-02T22:26:29;90.47;;;30.60;;
66761;SDS011;53672;48.176;16.338;2024-03-02T22:31:31;87.43;;;29.65;;
66761;SDS011;53672;48.176;16.338;2024-03-02T22:36:34;83.87;;;28.13;;
66761;SDS011;53672;48.176;16.338;2024-03-02T22:41:35;87.28;;;28.45;;
66761;SDS011;53672;48.176;16.338;2024-03-02T22:46:37;83.88;;;28.38;;
66761;SDS011;53672;48.176;16.338;2024-03-02T22:51:40;74.10;;;26.23;;
66761;SDS011;53672;48.176;16.338;2024-03-02T22:56:42;82.63;;;28.95;;
66761;SDS011;53672;48.176;16.338;2024-03-02T23:01:44;85.90;;;27.83;;
66761;SDS011;53672;48.176;16.338;2024-03-02T23:06:46;81.10;;;27.88;;
66761;SDS011;53672;48.176;16.338;2024-03-02T23:11:48;78.95;;;27.60;;
66761;SDS011;53672;48.176;16.338;2024-03-02T23:16:51;78.40;;;27.13;;
66761;SDS011;53672;48.176;16.338;2024-03-02T23:21:54;81.93;;;28.42;;
66761;SDS011;53672;48.176;16.338;2024-03-02T23:26:55;79.27;;;27.87;;
66761;SDS011;53672;48.176;16.338;2024-03-02T23:31:57;73.07;;;27.48;;
66761;SDS011;53672;48.176;16.338;2024-03-02T23:37:00;71.55;;;25.95;;
66761;SDS011;53672;48.176;16.338;2024-03-02T23:42:02;68.23;;;26.00;;
66761;SDS011;53672;48.176;16.338;2024-03-02T23:47:03;73.45;;;26.30;;
66761;SDS011;53672;48.176;16.338;2024-03-02T23:52:09;68.67;;;25.20;;
66761;SDS011;53672;48.176;16.338;2024-03-02T23:57:10;72.35;;;26.10;;
